Washington, District of Columbia
Traffic Map
Current Weather Conditions
Washington, District of Columbia
Clear
Clear

Feels Like: -2°
Wind Chill: -2° Ceiling: Unl
Heat Index: Visibility: 10mi
Dew Point: -13° Wind: 6mph
Humidity: 34% Direction: 350° (N)
Pressure: 30.56in Gusts: 0mph
Raw Report DataKDCA 212352Z 35005KT 10SM CLR 01/M13 A3056 RMK AO2 SLP346 T00111133 10044 20011 51020
Traffic Incident Summary
Active as of:
Severity:
Category:
InformationThere was an issue retrieving the traffic information for this location. Please try a different location or try again shortly.
Advertisements
Track Severe Weather on mobile